sensor_id;sensor_type;location;lat;lon;timestamp;P1;durP1;ratioP1;P2;durP2;ratioP2
30169;SDS011;46426;51.368;5.254;2023-11-19T00:00:17;1.65;;;1.20;;
30169;SDS011;46426;51.368;5.254;2023-11-19T00:00:49;1.27;;;1.07;;
30169;SDS011;46426;51.368;5.254;2023-11-19T00:01:25;1.37;;;1.03;;
30169;SDS011;46426;51.368;5.254;2023-11-19T00:01:57;1.58;;;1.30;;
30169;SDS011;46426;51.368;5.254;2023-11-19T00:02:30;1.60;;;1.08;;
30169;SDS011;46426;51.368;5.254;2023-11-19T00:03:02;2.80;;;1.30;;
30169;SDS011;46426;51.368;5.254;2023-11-19T00:03:35;1.87;;;1.20;;
30169;SDS011;46426;51.368;5.254;2023-11-19T00:04:07;2.35;;;1.30;;
30169;SDS011;46426;51.368;5.254;2023-11-19T00:04:40;1.83;;;1.20;;
30169;SDS011;46426;51.368;5.254;2023-11-19T00:05:12;1.20;;;1.10;;
30169;SDS011;46426;51.368;5.254;2023-11-19T00:05:45;1.57;;;1.07;;
30169;SDS011;46426;51.368;5.254;2023-11-19T00:06:18;1.83;;;1.10;;
30169;SDS011;46426;51.368;5.254;2023-11-19T00:06:50;2.33;;;1.30;;
30169;SDS011;46426;51.368;5.254;2023-11-19T00:07:22;2.57;;;1.40;;
30169;SDS011;46426;51.368;5.254;2023-11-19T00:08:01;1.97;;;1.03;;
30169;SDS011;46426;51.368;5.254;2023-11-19T00:08:34;1.40;;;1.20;;
30169;SDS011;46426;51.368;5.254;2023-11-19T00:09:06;1.70;;;1.13;;
30169;SDS011;46426;51.368;5.254;2023-11-19T00:09:40;4.03;;;1.10;;
30169;SDS011;46426;51.368;5.254;2023-11-19T00:10:13;2.03;;;1.20;;
30169;SDS011;46426;51.368;5.254;2023-11-19T00:10:45;1.23;;;1.13;;
30169;SDS011;46426;51.368;5.254;2023-11-19T00:11:18;2.67;;;1.53;;
30169;SDS011;46426;51.368;5.254;2023-11-19T00:11:50;3.70;;;1.33;;
30169;SDS011;46426;51.368;5.254;2023-11-19T00:12:26;1.87;;;1.10;;
30169;SDS011;46426;51.368;5.254;2023-11-19T00:12:58;1.90;;;1.30;;
30169;SDS011;46426;51.368;5.254;2023-11-19T00:13:30;1.30;;;1.00;;
30169;SDS011;46426;51.368;5.254;2023-11-19T00:14:02;2.10;;;1.00;;
30169;SDS011;46426;51.368;5.254;2023-11-19T00:14:35;1.90;;;1.05;;
30169;SDS011;46426;51.368;5.254;2023-11-19T00:15:07;1.65;;;1.20;;
30169;SDS011;46426;51.368;5.254;2023-11-19T00:15:44;2.60;;;1.20;;
30169;SDS011;46426;51.368;5.254;2023-11-19T00:16:17;1.50;;;1.10;;
30169;SDS011;46426;51.368;5.254;2023-11-19T00:16:49;2.47;;;1.50;;
30169;SDS011;46426;51.368;5.254;2023-11-19T00:17:23;2.03;;;1.20;;
30169;SDS011;46426;51.368;5.254;2023-11-19T00:17:55;2.13;;;1.20;;
30169;SDS011;46426;51.368;5.254;2023-11-19T00:18:32;1.90;;;1.10;;
30169;SDS011;46426;51.368;5.254;2023-11-19T00:19:04;1.33;;;1.10;;
30169;SDS011;46426;51.368;5.254;2023-11-19T00:19:37;1.20;;;1.10;;
30169;SDS011;46426;51.368;5.254;2023-11-19T00:20:12;2.30;;;1.30;;
30169;SDS011;46426;51.368;5.254;2023-11-19T00:20:45;2.00;;;1.10;;
30169;SDS011;46426;51.368;5.254;2023-11-19T00:21:18;1.58;;;0.95;;
30169;SDS011;46426;51.368;5.254;2023-11-19T00:21:50;2.08;;;1.13;;
30169;SDS011;46426;51.368;5.254;2023-11-19T00:22:22;1.60;;;1.08;;
30169;SDS011;46426;51.368;5.254;2023-11-19T00:22:55;1.70;;;1.15;;
30169;SDS011;46426;51.368;5.254;2023-11-19T00:23:27;1.60;;;1.10;;
30169;SDS011;46426;51.368;5.254;2023-11-19T00:24:00;1.97;;;1.10;;
30169;SDS011;46426;51.368;5.254;2023-11-19T00:24:32;2.00;;;1.10;;
30169;SDS011;46426;51.368;5.254;2023-11-19T00:25:04;1.17;;;1.03;;
30169;SDS011;46426;51.368;5.254;2023-11-19T00:25:37;1.23;;;1.00;;
30169;SDS011;46426;51.368;5.254;2023-11-19T00:26:10;2.97;;;1.30;;
30169;SDS011;46426;51.368;5.254;2023-11-19T00:26:45;1.57;;;1.10;;
30169;SDS011;46426;51.368;5.254;2023-11-19T00:27:17;3.23;;;1.10;;
30169;SDS011;46426;51.368;5.254;2023-11-19T00:27:52;1.93;;;1.00;;
30169;SDS011;46426;51.368;5.254;2023-11-19T00:28:26;1.43;;;1.13;;
30169;SDS011;46426;51.368;5.254;2023-11-19T00:28:58;0.80;;;0.77;;
30169;SDS011;46426;51.368;5.254;2023-11-19T00:29:31;1.73;;;1.02;;
30169;SDS011;46426;51.368;5.254;2023-11-19T00:30:06;1.27;;;0.90;;
30169;SDS011;46426;51.368;5.254;2023-11-19T00:30:40;1.77;;;1.27;;
30169;SDS011;46426;51.368;5.254;2023-11-19T00:31:15;1.83;;;1.03;;
30169;SDS011;46426;51.368;5.254;2023-11-19T00:31:47;2.30;;;1.27;;
30169;SDS011;46426;51.368;5.254;2023-11-19T00:32:20;1.93;;;1.00;;
30169;SDS011;46426;51.368;5.254;2023-11-19T00:32:52;1.43;;;1.17;;
30169;SDS011;46426;51.368;5.254;2023-11-19T00:33:25;1.33;;;1.00;;
30169;SDS011;46426;51.368;5.254;2023-11-19T00:33:57;2.60;;;1.00;;
30169;SDS011;46426;51.368;5.254;2023-11-19T00:34:29;4.03;;;1.60;;
30169;SDS011;46426;51.368;5.254;2023-11-19T00:35:02;1.58;;;1.10;;
30169;SDS011;46426;51.368;5.254;2023-11-19T00:35:34;2.20;;;1.20;;
30169;SDS011;46426;51.368;5.254;2023-11-19T00:36:07;2.57;;;1.20;;
30169;SDS011;46426;51.368;5.254;2023-11-19T00:36:39;2.30;;;1.30;;
30169;SDS011;46426;51.368;5.254;2023-11-19T00:37:11;1.87;;;1.10;;
30169;SDS011;46426;51.368;5.254;2023-11-19T00:37:43;1.73;;;1.10;;
30169;SDS011;46426;51.368;5.254;2023-11-19T00:38:18;2.17;;;1.13;;
30169;SDS011;46426;51.368;5.254;2023-11-19T00:38:50;2.45;;;1.10;;
30169;SDS011;46426;51.368;5.254;2023-11-19T00:39:22;2.40;;;1.23;;
30169;SDS011;46426;51.368;5.254;2023-11-19T00:39:55;1.80;;;1.10;;
30169;SDS011;46426;51.368;5.254;2023-11-19T00:40:28;1.25;;;1.10;;
30169;SDS011;46426;51.368;5.254;2023-11-19T00:41:01;2.08;;;1.05;;
30169;SDS011;46426;51.368;5.254;2023-11-19T00:41:34;1.40;;;1.13;;
30169;SDS011;46426;51.368;5.254;2023-11-19T00:42:06;1.63;;;0.97;;
30169;SDS011;46426;51.368;5.254;2023-11-19T00:42:38;2.83;;;1.00;;
30169;SDS011;46426;51.368;5.254;2023-11-19T00:43:10;1.75;;;1.00;;
30169;SDS011;46426;51.368;5.254;2023-11-19T00:43:43;1.35;;;0.82;;
30169;SDS011;46426;51.368;5.254;2023-11-19T00:44:15;1.40;;;1.00;;
30169;SDS011;46426;51.368;5.254;2023-11-19T00:44:48;1.40;;;1.00;;
30169;SDS011;46426;51.368;5.254;2023-11-19T00:45:22;1.92;;;1.25;;
30169;SDS011;46426;51.368;5.254;2023-11-19T00:45:55;1.55;;;1.10;;
30169;SDS011;46426;51.368;5.254;2023-11-19T00:46:27;1.67;;;1.00;;
30169;SDS011;46426;51.368;5.254;2023-11-19T00:46:59;1.60;;;1.02;;
30169;SDS011;46426;51.368;5.254;2023-11-19T00:47:32;1.67;;;1.17;;
30169;SDS011;46426;51.368;5.254;2023-11-19T00:48:04;2.75;;;1.20;;
30169;SDS011;46426;51.368;5.254;2023-11-19T00:48:38;2.22;;;1.00;;
30169;SDS011;46426;51.368;5.254;2023-11-19T00:49:10;1.75;;;1.10;;
30169;SDS011;46426;51.368;5.254;2023-11-19T00:49:43;2.03;;;1.20;;
30169;SDS011;46426;51.368;5.254;2023-11-19T00:50:16;1.52;;;1.00;;
30169;SDS011;46426;51.368;5.254;2023-11-19T00:50:48;1.67;;;1.30;;
30169;SDS011;46426;51.368;5.254;2023-11-19T00:51:21;2.20;;;1.55;;
30169;SDS011;46426;51.368;5.254;2023-11-19T00:51:53;1.15;;;0.90;;
30169;SDS011;46426;51.368;5.254;2023-11-19T00:52:25;2.27;;;1.03;;
30169;SDS011;46426;51.368;5.254;2023-11-19T00:52:57;1.85;;;1.08;;
30169;SDS011;46426;51.368;5.254;2023-11-19T00:53:30;1.40;;;1.00;;
30169;SDS011;46426;51.368;5.254;2023-11-19T00:54:04;1.98;;;0.93;;
30169;SDS011;46426;51.368;5.254;2023-11-19T00:54:36;1.57;;;0.90;;
30169;SDS011;46426;51.368;5.254;2023-11-19T00:55:09;1.52;;;1.20;;
30169;SDS011;46426;51.368;5.254;2023-11-19T00:55:43;1.88;;;1.05;;
30169;SDS011;46426;51.368;5.254;2023-11-19T00:56:18;2.85;;;1.08;;
30169;SDS011;46426;51.368;5.254;2023-11-19T00:56:52;1.27;;;0.90;;
30169;SDS011;46426;51.368;5.254;2023-11-19T00:57:26;2.45;;;1.10;;
30169;SDS011;46426;51.368;5.254;2023-11-19T00:57:58;1.10;;;0.80;;
30169;SDS011;46426;51.368;5.254;2023-11-19T00:58:31;1.10;;;0.80;;
30169;SDS011;46426;51.368;5.254;2023-11-19T00:59:04;2.45;;;1.10;;
30169;SDS011;46426;51.368;5.254;2023-11-19T00:59:36;1.50;;;0.90;;
30169;SDS011;46426;51.368;5.254;2023-11-19T01:00:08;1.00;;;0.80;;
30169;SDS011;46426;51.368;5.254;2023-11-19T01:00:52;1.27;;;1.17;;
30169;SDS011;46426;51.368;5.254;2023-11-19T01:01:24;1.53;;;0.90;;
30169;SDS011;46426;51.368;5.254;2023-11-19T01:01:57;1.17;;;0.73;;
30169;SDS011;46426;51.368;5.254;2023-11-19T01:02:31;1.07;;;0.80;;
30169;SDS011;46426;51.368;5.254;2023-11-19T01:03:03;1.23;;;1.03;;
30169;SDS011;46426;51.368;5.254;2023-11-19T01:03:36;2.00;;;1.10;;
30169;SDS011;46426;51.368;5.254;2023-11-19T01:04:08;2.45;;;0.90;;
30169;SDS011;46426;51.368;5.254;2023-11-19T01:04:41;1.57;;;1.00;;
30169;SDS011;46426;51.368;5.254;2023-11-19T01:05:13;1.77;;;1.10;;
30169;SDS011;46426;51.368;5.254;2023-11-19T01:05:48;1.57;;;0.80;;
30169;SDS011;46426;51.368;5.254;2023-11-19T01:06:30;2.43;;;0.87;;
30169;SDS011;46426;51.368;5.254;2023-11-19T01:07:02;3.73;;;1.20;;
30169;SDS011;46426;51.368;5.254;2023-11-19T01:07:38;1.70;;;1.10;;
30169;SDS011;46426;51.368;5.254;2023-11-19T01:08:11;1.40;;;0.90;;
30169;SDS011;46426;51.368;5.254;2023-11-19T01:08:43;1.40;;;0.90;;
30169;SDS011;46426;51.368;5.254;2023-11-19T01:09:16;1.67;;;1.03;;
30169;SDS011;46426;51.368;5.254;2023-11-19T01:09:48;4.80;;;1.63;;
30169;SDS011;46426;51.368;5.254;2023-11-19T01:10:20;1.43;;;0.97;;
30169;SDS011;46426;51.368;5.254;2023-11-19T01:10:53;1.33;;;0.90;;
30169;SDS011;46426;51.368;5.254;2023-11-19T01:11:25;1.93;;;1.27;;
30169;SDS011;46426;51.368;5.254;2023-11-19T01:11:57;1.97;;;1.10;;
30169;SDS011;46426;51.368;5.254;2023-11-19T01:12:31;1.37;;;0.93;;
30169;SDS011;46426;51.368;5.254;2023-11-19T01:13:03;2.93;;;1.27;;
30169;SDS011;46426;51.368;5.254;2023-11-19T01:13:37;2.43;;;1.30;;
30169;SDS011;46426;51.368;5.254;2023-11-19T01:14:10;3.03;;;1.20;;
30169;SDS011;46426;51.368;5.254;2023-11-19T01:14:43;1.37;;;1.00;;
30169;SDS011;46426;51.368;5.254;2023-11-19T01:15:15;1.37;;;1.00;;
30169;SDS011;46426;51.368;5.254;2023-11-19T01:15:47;2.20;;;1.30;;
30169;SDS011;46426;51.368;5.254;2023-11-19T01:16:20;2.67;;;1.13;;
30169;SDS011;46426;51.368;5.254;2023-11-19T01:16:52;2.72;;;1.10;;
30169;SDS011;46426;51.368;5.254;2023-11-19T01:17:26;1.47;;;0.90;;
30169;SDS011;46426;51.368;5.254;2023-11-19T01:17:58;1.73;;;1.00;;
30169;SDS011;46426;51.368;5.254;2023-11-19T01:18:30;2.03;;;1.17;;
30169;SDS011;46426;51.368;5.254;2023-11-19T01:19:03;2.07;;;1.00;;
30169;SDS011;46426;51.368;5.254;2023-11-19T01:19:48;3.08;;;0.95;;
30169;SDS011;46426;51.368;5.254;2023-11-19T01:20:22;1.33;;;1.00;;
30169;SDS011;46426;51.368;5.254;2023-11-19T01:20:54;2.80;;;1.05;;
30169;SDS011;46426;51.368;5.254;2023-11-19T01:21:26;1.87;;;1.20;;
30169;SDS011;46426;51.368;5.254;2023-11-19T01:21:58;2.00;;;0.85;;
30169;SDS011;46426;51.368;5.254;2023-11-19T01:22:30;2.00;;;1.10;;
30169;SDS011;46426;51.368;5.254;2023-11-19T01:23:03;2.23;;;1.30;;
30169;SDS011;46426;51.368;5.254;2023-11-19T01:23:35;1.92;;;0.93;;
30169;SDS011;46426;51.368;5.254;2023-11-19T01:24:07;0.97;;;0.80;;
30169;SDS011;46426;51.368;5.254;2023-11-19T01:24:42;2.63;;;1.40;;
30169;SDS011;46426;51.368;5.254;2023-11-19T01:25:14;2.20;;;1.10;;
30169;SDS011;46426;51.368;5.254;2023-11-19T01:25:46;2.20;;;1.00;;
30169;SDS011;46426;51.368;5.254;2023-11-19T01:26:20;1.73;;;1.10;;
30169;SDS011;46426;51.368;5.254;2023-11-19T01:26:52;1.15;;;0.98;;
30169;SDS011;46426;51.368;5.254;2023-11-19T01:27:25;1.40;;;1.00;;
30169;SDS011;46426;51.368;5.254;2023-11-19T01:27:57;3.20;;;1.30;;
30169;SDS011;46426;51.368;5.254;2023-11-19T01:28:30;2.10;;;0.83;;
30169;SDS011;46426;51.368;5.254;2023-11-19T01:29:03;2.63;;;1.03;;
30169;SDS011;46426;51.368;5.254;2023-11-19T01:29:36;1.53;;;1.10;;
30169;SDS011;46426;51.368;5.254;2023-11-19T01:30:11;2.17;;;1.07;;
30169;SDS011;46426;51.368;5.254;2023-11-19T01:30:45;3.05;;;1.10;;
30169;SDS011;46426;51.368;5.254;2023-11-19T01:31:17;2.30;;;1.27;;
30169;SDS011;46426;51.368;5.254;2023-11-19T01:31:49;1.23;;;0.95;;
30169;SDS011;46426;51.368;5.254;2023-11-19T01:32:24;1.23;;;0.90;;
30169;SDS011;46426;51.368;5.254;2023-11-19T01:32:57;1.98;;;0.90;;
30169;SDS011;46426;51.368;5.254;2023-11-19T01:33:29;2.00;;;1.10;;
30169;SDS011;46426;51.368;5.254;2023-11-19T01:34:01;1.97;;;1.00;;
30169;SDS011;46426;51.368;5.254;2023-11-19T01:34:34;2.58;;;0.90;;
30169;SDS011;46426;51.368;5.254;2023-11-19T01:35:07;2.33;;;0.90;;
30169;SDS011;46426;51.368;5.254;2023-11-19T01:35:40;2.05;;;0.90;;
30169;SDS011;46426;51.368;5.254;2023-11-19T01:36:13;3.93;;;1.43;;
30169;SDS011;46426;51.368;5.254;2023-11-19T01:36:46;3.33;;;1.10;;
30169;SDS011;46426;51.368;5.254;2023-11-19T01:37:19;1.42;;;1.00;;
30169;SDS011;46426;51.368;5.254;2023-11-19T01:37:51;5.07;;;1.13;;
30169;SDS011;46426;51.368;5.254;2023-11-19T01:38:23;1.98;;;0.95;;
30169;SDS011;46426;51.368;5.254;2023-11-19T01:38:55;3.00;;;1.30;;
30169;SDS011;46426;51.368;5.254;2023-11-19T01:39:27;3.97;;;1.07;;
30169;SDS011;46426;51.368;5.254;2023-11-19T01:39:59;2.07;;;1.00;;
30169;SDS011;46426;51.368;5.254;2023-11-19T01:40:32;2.25;;;0.90;;
30169;SDS011;46426;51.368;5.254;2023-11-19T01:41:04;3.43;;;1.20;;
30169;SDS011;46426;51.368;5.254;2023-11-19T01:41:36;1.87;;;0.93;;
30169;SDS011;46426;51.368;5.254;2023-11-19T01:42:08;1.83;;;1.20;;
30169;SDS011;46426;51.368;5.254;2023-11-19T01:42:40;2.40;;;1.52;;
30169;SDS011;46426;51.368;5.254;2023-11-19T01:43:30;2.85;;;1.10;;
30169;SDS011;46426;51.368;5.254;2023-11-19T01:44:03;3.58;;;1.45;;
30169;SDS011;46426;51.368;5.254;2023-11-19T01:44:35;4.50;;;1.52;;
30169;SDS011;46426;51.368;5.254;2023-11-19T01:45:07;1.83;;;0.90;;
30169;SDS011;46426;51.368;5.254;2023-11-19T01:45:41;3.87;;;1.07;;
30169;SDS011;46426;51.368;5.254;2023-11-19T01:46:13;1.98;;;1.10;;
30169;SDS011;46426;51.368;5.254;2023-11-19T01:46:47;2.80;;;1.63;;
30169;SDS011;46426;51.368;5.254;2023-11-19T01:47:20;3.20;;;1.00;;
30169;SDS011;46426;51.368;5.254;2023-11-19T01:47:53;3.20;;;1.20;;
30169;SDS011;46426;51.368;5.254;2023-11-19T01:48:25;1.67;;;1.10;;
30169;SDS011;46426;51.368;5.254;2023-11-19T01:48:58;2.27;;;1.00;;
30169;SDS011;46426;51.368;5.254;2023-11-19T01:49:32;2.35;;;0.80;;
30169;SDS011;46426;51.368;5.254;2023-11-19T01:50:06;2.53;;;1.00;;
30169;SDS011;46426;51.368;5.254;2023-11-19T01:50:39;1.42;;;1.00;;
30169;SDS011;46426;51.368;5.254;2023-11-19T01:51:12;2.28;;;0.90;;
30169;SDS011;46426;51.368;5.254;2023-11-19T01:51:45;2.60;;;1.10;;
30169;SDS011;46426;51.368;5.254;2023-11-19T01:52:18;2.17;;;0.93;;
30169;SDS011;46426;51.368;5.254;2023-11-19T01:52:52;2.53;;;1.07;;
30169;SDS011;46426;51.368;5.254;2023-11-19T01:53:24;2.65;;;1.33;;
30169;SDS011;46426;51.368;5.254;2023-11-19T01:53:57;3.73;;;1.43;;
30169;SDS011;46426;51.368;5.254;2023-11-19T01:54:30;3.17;;;1.08;;
30169;SDS011;46426;51.368;5.254;2023-11-19T01:55:02;2.00;;;1.10;;
30169;SDS011;46426;51.368;5.254;2023-11-19T01:55:35;3.03;;;1.40;;
30169;SDS011;46426;51.368;5.254;2023-11-19T01:56:07;3.92;;;1.08;;
30169;SDS011;46426;51.368;5.254;2023-11-19T01:56:43;2.90;;;0.90;;
30169;SDS011;46426;51.368;5.254;2023-11-19T01:57:16;2.75;;;0.90;;
30169;SDS011;46426;51.368;5.254;2023-11-19T01:57:48;3.13;;;1.20;;
30169;SDS011;46426;51.368;5.254;2023-11-19T01:58:21;2.75;;;1.15;;
30169;SDS011;46426;51.368;5.254;2023-11-19T01:58:55;2.03;;;1.10;;
30169;SDS011;46426;51.368;5.254;2023-11-19T01:59:27;4.70;;;1.40;;
30169;SDS011;46426;51.368;5.254;2023-11-19T02:00:00;3.17;;;1.20;;
30169;SDS011;46426;51.368;5.254;2023-11-19T02:00:33;2.87;;;1.00;;
30169;SDS011;46426;51.368;5.254;2023-11-19T02:01:05;2.67;;;1.43;;
30169;SDS011;46426;51.368;5.254;2023-11-19T02:01:39;2.53;;;1.00;;
30169;SDS011;46426;51.368;5.254;2023-11-19T02:02:12;2.13;;;1.10;;
30169;SDS011;46426;51.368;5.254;2023-11-19T02:02:46;3.30;;;1.30;;
30169;SDS011;46426;51.368;5.254;2023-11-19T02:03:18;2.67;;;1.27;;
30169;SDS011;46426;51.368;5.254;2023-11-19T02:03:51;3.50;;;1.07;;
30169;SDS011;46426;51.368;5.254;2023-11-19T02:04:24;2.05;;;1.17;;
30169;SDS011;46426;51.368;5.254;2023-11-19T02:04:57;2.83;;;1.35;;
30169;SDS011;46426;51.368;5.254;2023-11-19T02:05:30;3.45;;;1.20;;
30169;SDS011;46426;51.368;5.254;2023-11-19T02:06:04;2.30;;;1.10;;
30169;SDS011;46426;51.368;5.254;2023-11-19T02:06:37;3.37;;;1.00;;
30169;SDS011;46426;51.368;5.254;2023-11-19T02:07:12;3.30;;;1.23;;
30169;SDS011;46426;51.368;5.254;2023-11-19T02:07:46;3.27;;;1.30;;
30169;SDS011;46426;51.368;5.254;2023-11-19T02:08:18;1.83;;;1.00;;
30169;SDS011;46426;51.368;5.254;2023-11-19T02:08:51;1.90;;;1.03;;
30169;SDS011;46426;51.368;5.254;2023-11-19T02:09:24;1.53;;;0.93;;
30169;SDS011;46426;51.368;5.254;2023-11-19T02:09:56;2.08;;;0.90;;
30169;SDS011;46426;51.368;5.254;2023-11-19T02:10:31;2.53;;;1.10;;
30169;SDS011;46426;51.368;5.254;2023-11-19T02:11:05;2.17;;;1.20;;
30169;SDS011;46426;51.368;5.254;2023-11-19T02:11:41;3.93;;;1.57;;
30169;SDS011;46426;51.368;5.254;2023-11-19T02:12:13;2.83;;;1.10;;
30169;SDS011;46426;51.368;5.254;2023-11-19T02:12:46;2.08;;;1.00;;
30169;SDS011;46426;51.368;5.254;2023-11-19T02:13:18;2.83;;;1.30;;
30169;SDS011;46426;51.368;5.254;2023-11-19T02:13:50;2.90;;;1.10;;
30169;SDS011;46426;51.368;5.254;2023-11-19T02:14:24;2.70;;;1.03;;
30169;SDS011;46426;51.368;5.254;2023-11-19T02:14:57;3.37;;;1.20;;
30169;SDS011;46426;51.368;5.254;2023-11-19T02:15:31;2.33;;;1.17;;
30169;SDS011;46426;51.368;5.254;2023-11-19T02:16:03;3.30;;;1.13;;
30169;SDS011;46426;51.368;5.254;2023-11-19T02:16:36;1.88;;;0.85;;
30169;SDS011;46426;51.368;5.254;2023-11-19T02:17:24;3.05;;;1.17;;
30169;SDS011;46426;51.368;5.254;2023-11-19T02:17:56;2.93;;;1.40;;
30169;SDS011;46426;51.368;5.254;2023-11-19T02:18:29;2.30;;;0.97;;
30169;SDS011;46426;51.368;5.254;2023-11-19T02:19:02;2.50;;;0.87;;
30169;SDS011;46426;51.368;5.254;2023-11-19T02:19:35;2.88;;;1.38;;
30169;SDS011;46426;51.368;5.254;2023-11-19T02:20:08;2.45;;;1.10;;
30169;SDS011;46426;51.368;5.254;2023-11-19T02:20:48;2.55;;;1.23;;
30169;SDS011;46426;51.368;5.254;2023-11-19T02:21:21;1.63;;;1.02;;
30169;SDS011;46426;51.368;5.254;2023-11-19T02:21:54;2.83;;;1.20;;
30169;SDS011;46426;51.368;5.254;2023-11-19T02:22:27;3.10;;;1.30;;
30169;SDS011;46426;51.368;5.254;2023-11-19T02:22:59;2.75;;;1.10;;
30169;SDS011;46426;51.368;5.254;2023-11-19T02:23:32;4.60;;;1.35;;
30169;SDS011;46426;51.368;5.254;2023-11-19T02:24:06;2.17;;;0.90;;
30169;SDS011;46426;51.368;5.254;2023-11-19T02:24:40;2.80;;;1.10;;
30169;SDS011;46426;51.368;5.254;2023-11-19T02:25:30;2.40;;;1.08;;
30169;SDS011;46426;51.368;5.254;2023-11-19T02:27:21;3.80;;;1.48;;
30169;SDS011;46426;51.368;5.254;2023-11-19T02:27:57;2.27;;;1.10;;
30169;SDS011;46426;51.368;5.254;2023-11-19T02:28:32;2.83;;;0.90;;
30169;SDS011;46426;51.368;5.254;2023-11-19T02:29:04;5.50;;;1.60;;
30169;SDS011;46426;51.368;5.254;2023-11-19T02:29:39;3.63;;;1.20;;
30169;SDS011;46426;51.368;5.254;2023-11-19T02:30:12;2.00;;;1.23;;
30169;SDS011;46426;51.368;5.254;2023-11-19T02:30:46;3.33;;;1.20;;
30169;SDS011;46426;51.368;5.254;2023-11-19T02:31:18;2.28;;;1.05;;
30169;SDS011;46426;51.368;5.254;2023-11-19T02:31:51;2.80;;;1.10;;
30169;SDS011;46426;51.368;5.254;2023-11-19T02:32:23;3.47;;;1.33;;
30169;SDS011;46426;51.368;5.254;2023-11-19T02:32:59;2.43;;;1.30;;
30169;SDS011;46426;51.368;5.254;2023-11-19T02:33:34;3.73;;;1.27;;
30169;SDS011;46426;51.368;5.254;2023-11-19T02:34:06;1.90;;;1.20;;
30169;SDS011;46426;51.368;5.254;2023-11-19T02:34:38;2.93;;;1.30;;
30169;SDS011;46426;51.368;5.254;2023-11-19T02:35:10;3.90;;;1.42;;
30169;SDS011;46426;51.368;5.254;2023-11-19T02:35:43;3.93;;;1.30;;
30169;SDS011;46426;51.368;5.254;2023-11-19T02:36:15;2.50;;;1.23;;
30169;SDS011;46426;51.368;5.254;2023-11-19T02:36:48;4.30;;;1.37;;
30169;SDS011;46426;51.368;5.254;2023-11-19T02:37:21;3.60;;;1.40;;
30169;SDS011;46426;51.368;5.254;2023-11-19T02:37:54;3.10;;;1.00;;
30169;SDS011;46426;51.368;5.254;2023-11-19T02:38:26;3.77;;;1.10;;
30169;SDS011;46426;51.368;5.254;2023-11-19T02:38:58;3.78;;;1.50;;
30169;SDS011;46426;51.368;5.254;2023-11-19T02:39:30;4.20;;;1.73;;
30169;SDS011;46426;51.368;5.254;2023-11-19T02:40:03;1.80;;;1.08;;
30169;SDS011;46426;51.368;5.254;2023-11-19T02:40:37;3.33;;;1.53;;
30169;SDS011;46426;51.368;5.254;2023-11-19T02:41:10;3.87;;;1.10;;
30169;SDS011;46426;51.368;5.254;2023-11-19T02:41:42;2.17;;;1.10;;
30169;SDS011;46426;51.368;5.254;2023-11-19T02:42:14;2.03;;;1.10;;
30169;SDS011;46426;51.368;5.254;2023-11-19T02:42:47;3.17;;;1.20;;
30169;SDS011;46426;51.368;5.254;2023-11-19T02:43:19;2.95;;;1.25;;
30169;SDS011;46426;51.368;5.254;2023-11-19T02:43:52;4.78;;;1.30;;
30169;SDS011;46426;51.368;5.254;2023-11-19T02:44:24;4.60;;;1.43;;
30169;SDS011;46426;51.368;5.254;2023-11-19T02:44:56;4.63;;;1.42;;
30169;SDS011;46426;51.368;5.254;2023-11-19T02:45:28;3.37;;;1.30;;
30169;SDS011;46426;51.368;5.254;2023-11-19T02:46:03;3.80;;;1.47;;
30169;SDS011;46426;51.368;5.254;2023-11-19T02:46:43;2.35;;;1.20;;
30169;SDS011;46426;51.368;5.254;2023-11-19T02:47:16;4.35;;;1.38;;
30169;SDS011;46426;51.368;5.254;2023-11-19T02:47:49;3.50;;;1.25;;
30169;SDS011;46426;51.368;5.254;2023-11-19T02:48:21;3.23;;;1.53;;
30169;SDS011;46426;51.368;5.254;2023-11-19T02:48:53;3.53;;;1.30;;
30169;SDS011;46426;51.368;5.254;2023-11-19T02:49:25;2.80;;;1.40;;
30169;SDS011;46426;51.368;5.254;2023-11-19T02:49:58;2.63;;;1.20;;
30169;SDS011;46426;51.368;5.254;2023-11-19T02:50:30;3.10;;;1.52;;
30169;SDS011;46426;51.368;5.254;2023-11-19T02:51:03;3.70;;;1.60;;
30169;SDS011;46426;51.368;5.254;2023-11-19T02:51:36;2.57;;;1.07;;
30169;SDS011;46426;51.368;5.254;2023-11-19T02:52:09;3.47;;;1.10;;
30169;SDS011;46426;51.368;5.254;2023-11-19T02:52:42;2.83;;;1.20;;
30169;SDS011;46426;51.368;5.254;2023-11-19T02:53:15;3.40;;;1.30;;
30169;SDS011;46426;51.368;5.254;2023-11-19T02:53:49;2.00;;;1.30;;
30169;SDS011;46426;51.368;5.254;2023-11-19T02:54:21;4.83;;;1.53;;
30169;SDS011;46426;51.368;5.254;2023-11-19T02:54:59;3.57;;;1.20;;
30169;SDS011;46426;51.368;5.254;2023-11-19T02:55:31;4.67;;;1.60;;
30169;SDS011;46426;51.368;5.254;2023-11-19T02:56:10;5.40;;;1.40;;
30169;SDS011;46426;51.368;5.254;2023-11-19T02:56:57;3.13;;;1.50;;
30169;SDS011;46426;51.368;5.254;2023-11-19T02:57:31;4.57;;;1.33;;
30169;SDS011;46426;51.368;5.254;2023-11-19T02:58:04;5.32;;;1.88;;
30169;SDS011;46426;51.368;5.254;2023-11-19T02:58:52;4.70;;;1.70;;
30169;SDS011;46426;51.368;5.254;2023-11-19T02:59:24;3.83;;;1.37;;
30169;SDS011;46426;51.368;5.254;2023-11-19T02:59:59;4.33;;;1.50;;
30169;SDS011;46426;51.368;5.254;2023-11-19T03:00:32;4.97;;;1.60;;
30169;SDS011;46426;51.368;5.254;2023-11-19T03:01:08;4.00;;;1.43;;
30169;SDS011;46426;51.368;5.254;2023-11-19T03:01:44;4.63;;;1.53;;
30169;SDS011;46426;51.368;5.254;2023-11-19T03:02:22;2.83;;;1.23;;
30169;SDS011;46426;51.368;5.254;2023-11-19T03:02:56;4.73;;;1.67;;
30169;SDS011;46426;51.368;5.254;2023-11-19T03:03:31;4.00;;;1.57;;
30169;SDS011;46426;51.368;5.254;2023-11-19T03:04:10;4.80;;;1.80;;
30169;SDS011;46426;51.368;5.254;2023-11-19T03:04:44;6.40;;;1.57;;
30169;SDS011;46426;51.368;5.254;2023-11-19T03:05:18;3.58;;;1.60;;
30169;SDS011;46426;51.368;5.254;2023-11-19T03:05:51;4.43;;;1.50;;
30169;SDS011;46426;51.368;5.254;2023-11-19T03:06:24;4.50;;;1.73;;
30169;SDS011;46426;51.368;5.254;2023-11-19T03:06:56;4.63;;;1.60;;
30169;SDS011;46426;51.368;5.254;2023-11-19T03:07:29;5.53;;;1.77;;
30169;SDS011;46426;51.368;5.254;2023-11-19T03:08:01;6.07;;;1.70;;
30169;SDS011;46426;51.368;5.254;2023-11-19T03:08:35;5.00;;;1.43;;
30169;SDS011;46426;51.368;5.254;2023-11-19T03:09:07;4.53;;;1.40;;
30169;SDS011;46426;51.368;5.254;2023-11-19T03:09:42;5.07;;;2.10;;
30169;SDS011;46426;51.368;5.254;2023-11-19T03:10:16;5.33;;;1.50;;
30169;SDS011;46426;51.368;5.254;2023-11-19T03:10:48;7.20;;;1.60;;
30169;SDS011;46426;51.368;5.254;2023-11-19T03:11:21;3.80;;;1.40;;
30169;SDS011;46426;51.368;5.254;2023-11-19T03:11:53;6.40;;;2.00;;
30169;SDS011;46426;51.368;5.254;2023-11-19T03:12:25;4.60;;;1.40;;
30169;SDS011;46426;51.368;5.254;2023-11-19T03:12:58;4.70;;;1.60;;
30169;SDS011;46426;51.368;5.254;2023-11-19T03:13:31;3.83;;;1.40;;
30169;SDS011;46426;51.368;5.254;2023-11-19T03:14:03;4.93;;;1.70;;
30169;SDS011;46426;51.368;5.254;2023-11-19T03:14:36;7.40;;;1.70;;
30169;SDS011;46426;51.368;5.254;2023-11-19T03:15:09;4.93;;;1.80;;
30169;SDS011;46426;51.368;5.254;2023-11-19T03:15:41;5.20;;;1.60;;
30169;SDS011;46426;51.368;5.254;2023-11-19T03:16:14;3.72;;;1.58;;
30169;SDS011;46426;51.368;5.254;2023-11-19T03:16:46;5.07;;;1.57;;
30169;SDS011;46426;51.368;5.254;2023-11-19T03:17:19;3.77;;;1.40;;
30169;SDS011;46426;51.368;5.254;2023-11-19T03:17:51;4.83;;;1.50;;
30169;SDS011;46426;51.368;5.254;2023-11-19T03:18:23;4.40;;;1.60;;
30169;SDS011;46426;51.368;5.254;2023-11-19T03:18:56;4.17;;;1.40;;
30169;SDS011;46426;51.368;5.254;2023-11-19T03:19:28;4.43;;;1.90;;
30169;SDS011;46426;51.368;5.254;2023-11-19T03:20:01;5.53;;;1.80;;
30169;SDS011;46426;51.368;5.254;2023-11-19T03:20:33;5.20;;;1.70;;
30169;SDS011;46426;51.368;5.254;2023-11-19T03:21:06;4.90;;;1.37;;
30169;SDS011;46426;51.368;5.254;2023-11-19T03:21:39;6.77;;;1.50;;
30169;SDS011;46426;51.368;5.254;2023-11-19T03:22:11;4.07;;;1.60;;